Main page
METAR-TAF:

METAR-TAF

Airports :

Brisbane Airport

Brisbane, Australia

latitude: 27-23S, longitude: 153-06E, elevation: 4 m

Current weather observation

The report was made 23 minutes ago, at 19:00 UTC
Wind 5 kt from the Southwest
Temperature 8°C
Humidity 71%
Pressure 1017 hPa
Visibility 10 km or more
no clouds below 1500 m and no cumulonimbus

METAR: YBBN 181900Z 22005KT CAVOK 08/03 Q1017 FM1900 MOD TURB BLW 5000FT

Time: 05:23 (19:23 UTC)

Forecast

The report was made 2 hours and 12 minutes ago, at 17:11 UTC
Forecast valid from 18 at 18 UTC to 19 at 24 UTC
Wind 10 kt from the West/Southwest
Visibility 10 km or more
no clouds below 1500 m and no cumulonimbus
From 18 at 2300 UTC
Wind 18 kt from the West/Southwest
Visibility 10 km or more
no clouds below 1500 m and no cumulonimbus
From 19 at 0900 UTC
Wind 10 kt from the Southwest
Visibility 10 km or more
no clouds below 1500 m and no cumulonimbus

TAF: YBBN 181711Z 1818/1924 25010KT CAVOK FM182300 24018KT CAVOK FM190900 22010KT CAVOK

Weather observations and forecasts of more than 4000 airports (METAR and TAF reports).

The available stations are represented by yellow and red dots on the map.

Hover mouse over dot to see the name of the station.

Then click to see weather observations and forecasts.

To change the map : click on the green buttons with a black cross to zoom in, on the green button with a dash to zoom out, or on the green arrows for adjacent maps.


METAR-TAF: